createdAt,value
2023-03-29T00:00:14.648Z,19.4410
2023-03-29T00:01:35.051Z,19.4427
2023-03-29T00:02:17.918Z,19.4567
2023-03-29T00:03:19.729Z,19.4772
2023-03-29T00:04:21.226Z,19.4704
2023-03-29T00:05:22.853Z,19.4710
2023-03-29T00:06:24.532Z,19.4661
2023-03-29T00:07:26.183Z,19.4667
2023-03-29T00:08:27.836Z,19.4675
2023-03-29T00:09:29.484Z,19.4870
2023-03-29T00:10:31.120Z,19.4901
2023-03-29T00:11:32.800Z,19.4905
2023-03-29T00:12:34.428Z,19.4663
2023-03-29T00:13:36.128Z,19.4792
2023-03-29T00:14:37.734Z,19.4757
2023-03-29T00:15:39.405Z,19.4788
2023-03-29T00:16:41.071Z,19.4856
2023-03-29T00:17:42.767Z,19.5004
2023-03-29T00:18:44.385Z,19.4942
2023-03-29T00:19:46.023Z,19.5076
2023-03-29T00:20:47.666Z,19.5031
2023-03-29T00:21:49.322Z,19.5076
2023-03-29T00:22:50.967Z,19.4957
2023-03-29T00:23:52.670Z,19.4973
2023-03-29T00:24:54.319Z,19.5041
2023-03-29T00:25:55.957Z,19.5010
2023-03-29T00:26:57.610Z,19.4899
2023-03-29T00:27:59.268Z,19.5020
2023-03-29T00:29:00.943Z,19.5135
2023-03-29T00:30:02.570Z,19.5179
2023-03-29T00:31:04.430Z,19.5283
2023-03-29T00:32:05.877Z,19.5263
2023-03-29T00:33:07.554Z,19.5135
2023-03-29T00:34:09.199Z,19.5195
2023-03-29T00:35:10.825Z,19.5074
2023-03-29T00:36:12.497Z,19.5101
2023-03-29T00:37:14.112Z,19.5374
2023-03-29T00:38:15.798Z,19.5439
2023-03-29T00:39:17.449Z,19.5472
2023-03-29T00:40:19.099Z,19.5474
2023-03-29T00:41:20.734Z,19.5487
2023-03-29T00:42:22.407Z,19.5368
2023-03-29T00:43:24.041Z,19.5421
2023-03-29T00:44:25.744Z,19.5446
2023-03-29T00:45:27.354Z,19.5419
2023-03-29T00:46:29.108Z,19.5532
2023-03-29T00:47:30.671Z,19.5524
2023-03-29T00:48:32.383Z,19.5402
2023-03-29T00:49:33.994Z,19.5554
2023-03-29T00:50:35.647Z,19.5557
2023-03-29T00:51:37.291Z,19.5312
2023-03-29T00:52:38.950Z,19.5489
2023-03-29T00:53:40.580Z,19.5423
2023-03-29T00:54:42.294Z,19.5446
2023-03-29T00:55:43.895Z,19.5460
2023-03-29T00:56:45.578Z,19.5487
2023-03-29T00:57:47.200Z,19.5686
2023-03-29T00:58:48.871Z,19.5616
2023-03-29T00:59:50.579Z,19.5637
2023-03-29T01:00:52.206Z,19.5811
2023-03-29T01:01:53.871Z,19.5898
2023-03-29T01:02:55.538Z,19.5996
2023-03-29T01:03:57.154Z,19.5947
2023-03-29T01:04:58.817Z,19.5848
2023-03-29T01:06:00.462Z,19.5834
2023-03-29T01:07:02.159Z,19.6000
2023-03-29T01:08:03.757Z,19.5856
2023-03-29T01:09:05.419Z,19.5937
2023-03-29T01:10:07.085Z,19.5949
2023-03-29T01:11:08.735Z,19.5943
2023-03-29T01:12:10.388Z,19.5957
2023-03-29T01:13:12.043Z,19.5969
2023-03-29T01:14:13.684Z,19.6076
2023-03-29T01:15:15.398Z,19.6086
2023-03-29T01:16:17.094Z,19.6093
2023-03-29T01:17:18.683Z,19.6165
2023-03-29T01:18:20.307Z,19.6298
2023-03-29T01:19:21.977Z,19.6175
2023-03-29T01:20:23.635Z,19.6097
2023-03-29T01:21:25.285Z,19.6185
2023-03-29T01:22:26.931Z,19.6218
2023-03-29T01:23:28.599Z,19.6169
2023-03-29T01:24:30.225Z,19.6189
2023-03-29T01:25:31.918Z,19.6148
2023-03-29T01:26:33.540Z,19.6401
2023-03-29T01:27:35.208Z,19.6267
2023-03-29T01:28:36.847Z,19.6395
2023-03-29T01:29:38.507Z,19.6516
2023-03-29T01:30:40.173Z,19.6553
2023-03-29T01:31:41.902Z,19.6448
2023-03-29T01:32:43.450Z,19.6261
2023-03-29T01:33:45.142Z,19.6232
2023-03-29T01:34:46.802Z,19.6347
2023-03-29T01:35:48.521Z,19.6345
2023-03-29T01:36:50.073Z,19.6212
2023-03-29T01:37:51.760Z,19.6165
2023-03-29T01:38:53.401Z,19.6232
2023-03-29T01:39:55.061Z,19.6158
2023-03-29T01:40:56.722Z,19.6372
2023-03-29T01:41:58.367Z,19.6427
2023-03-29T01:43:00.024Z,19.6247
2023-03-29T01:44:01.692Z,19.6128
2023-03-29T01:45:03.325Z,19.6037
2023-03-29T01:46:05.454Z,19.6045
2023-03-29T01:47:06.630Z,19.5509
2023-03-29T01:48:08.303Z,19.5269
2023-03-29T01:49:09.950Z,19.4994
2023-03-29T01:50:11.620Z,19.5415
2023-03-29T01:51:13.316Z,19.5608
2023-03-29T01:52:14.941Z,19.5528
2023-03-29T01:53:16.572Z,19.5485
2023-03-29T01:54:18.245Z,19.5637
2023-03-29T01:55:19.879Z,19.5653
2023-03-29T01:56:21.571Z,19.5696
2023-03-29T01:57:23.276Z,19.5998
2023-03-29T01:58:24.861Z,19.6078
2023-03-29T01:59:26.500Z,19.6356
2023-03-29T02:00:28.152Z,19.6577
2023-03-29T02:01:29.841Z,19.6647
2023-03-29T02:02:31.560Z,19.6801
2023-03-29T02:03:33.199Z,19.6933
2023-03-29T02:04:34.796Z,19.6863
2023-03-29T02:05:36.409Z,19.6945
2023-03-29T02:06:38.100Z,19.6925
2023-03-29T02:07:39.713Z,19.6898
2023-03-29T02:08:41.386Z,19.6793
2023-03-29T02:09:43.022Z,19.6912
2023-03-29T02:10:44.692Z,19.7033
2023-03-29T02:11:46.353Z,19.7140
2023-03-29T02:12:48.001Z,19.7364
2023-03-29T02:13:49.641Z,19.7194
2023-03-29T02:14:51.304Z,19.6955
2023-03-29T02:15:53.117Z,19.6890
2023-03-29T02:16:54.633Z,19.6736
2023-03-29T02:17:56.262Z,19.6577
2023-03-29T02:18:57.933Z,19.6436
2023-03-29T02:19:59.549Z,19.6910
2023-03-29T02:21:01.441Z,19.7313
2023-03-29T02:22:02.892Z,19.7222
2023-03-29T02:23:04.537Z,19.7126
2023-03-29T02:24:06.156Z,19.7290
2023-03-29T02:25:07.841Z,19.7290
2023-03-29T02:26:09.460Z,19.7286
2023-03-29T02:27:11.178Z,19.7266
2023-03-29T02:28:12.781Z,19.7366
2023-03-29T02:29:14.446Z,19.7479
2023-03-29T02:30:16.083Z,19.7598
2023-03-29T02:31:17.788Z,19.7629
2023-03-29T02:32:19.405Z,19.7535
2023-03-29T02:33:21.048Z,19.7697
2023-03-29T02:34:22.756Z,19.7682
2023-03-29T02:35:24.359Z,19.7658
2023-03-29T02:36:25.987Z,19.7843
2023-03-29T02:37:27.686Z,19.7894
2023-03-29T02:38:29.303Z,19.7736
2023-03-29T02:39:30.972Z,19.7693
2023-03-29T02:40:32.609Z,19.7810
2023-03-29T02:41:34.262Z,19.7748
2023-03-29T02:42:35.949Z,19.7715
2023-03-29T02:43:37.572Z,19.7627
2023-03-29T02:44:39.278Z,19.7615
2023-03-29T02:45:40.936Z,19.7816
2023-03-29T02:46:42.691Z,19.8013
2023-03-29T02:47:44.364Z,19.8001
2023-03-29T02:48:45.887Z,19.8007
2023-03-29T02:49:50.343Z,19.7874
2023-03-29T02:50:49.215Z,19.7742
2023-03-29T02:51:50.844Z,19.7744
2023-03-29T02:52:52.562Z,19.7888
2023-03-29T02:53:54.148Z,19.8001
2023-03-29T02:54:55.829Z,19.7798
2023-03-29T02:55:57.449Z,19.7908
2023-03-29T02:56:59.160Z,19.7978
2023-03-29T02:58:00.780Z,19.8112
2023-03-29T02:59:02.433Z,19.8052
2023-03-29T03:00:04.075Z,19.8190
2023-03-29T03:01:05.730Z,19.8102
2023-03-29T03:02:07.435Z,19.8089
2023-03-29T03:03:09.214Z,19.7970
2023-03-29T03:04:10.749Z,19.7947
2023-03-29T03:05:12.352Z,19.8067
2023-03-29T03:06:14.931Z,19.8099
2023-03-29T03:07:15.663Z,19.8161
2023-03-29T03:08:17.304Z,19.8387
2023-03-29T03:09:18.949Z,19.8364
2023-03-29T03:10:20.601Z,19.8313
2023-03-29T03:11:22.260Z,19.8075
2023-03-29T03:12:23.902Z,19.8233
2023-03-29T03:13:25.590Z,19.8258
2023-03-29T03:14:27.209Z,19.8075
2023-03-29T03:15:28.875Z,19.8048
2023-03-29T03:16:30.588Z,19.8130
2023-03-29T03:17:32.195Z,19.8110
2023-03-29T03:18:33.998Z,19.7980
2023-03-29T03:19:35.485Z,19.8110
2023-03-29T03:20:37.095Z,19.8116
2023-03-29T03:21:38.786Z,19.8069
2023-03-29T03:22:40.420Z,19.8060
2023-03-29T03:23:42.123Z,19.7921
2023-03-29T03:24:43.704Z,19.8058
2023-03-29T03:25:45.366Z,19.8042
2023-03-29T03:26:47.016Z,19.7902
2023-03-29T03:27:48.691Z,19.8058
2023-03-29T03:28:50.351Z,19.8099
2023-03-29T03:29:51.982Z,19.7958
2023-03-29T03:30:53.640Z,19.7853
2023-03-29T03:31:55.310Z,19.7804
2023-03-29T03:32:56.953Z,19.7715
2023-03-29T03:33:58.594Z,19.7789
2023-03-29T03:35:00.216Z,19.7606
2023-03-29T03:36:01.983Z,19.7756
2023-03-29T03:37:03.522Z,19.7633
2023-03-29T03:38:05.195Z,19.7670
2023-03-29T03:39:06.841Z,19.7750
2023-03-29T03:40:08.495Z,19.7670
2023-03-29T03:41:10.133Z,19.7664
2023-03-29T03:42:11.804Z,19.7917
2023-03-29T03:43:13.434Z,19.7900
2023-03-29T03:44:15.134Z,19.7888
2023-03-29T03:45:16.745Z,19.7795
2023-03-29T03:46:18.500Z,19.7570
2023-03-29T03:47:20.046Z,19.7619
2023-03-29T03:48:21.726Z,19.7574
2023-03-29T03:49:23.408Z,19.7545
2023-03-29T03:50:25.024Z,19.7670
2023-03-29T03:51:26.666Z,19.7454
2023-03-29T03:52:28.336Z,19.7491
2023-03-29T03:53:29.973Z,19.7724
2023-03-29T03:54:31.664Z,19.7670
2023-03-29T03:55:33.309Z,19.7541
2023-03-29T03:56:34.964Z,19.7662
2023-03-29T03:57:36.584Z,19.7732
2023-03-29T03:58:38.254Z,19.7736
2023-03-29T03:59:39.919Z,19.7697
2023-03-29T04:00:41.563Z,19.7588
2023-03-29T04:01:43.208Z,19.7454
2023-03-29T04:02:44.904Z,19.7650
2023-03-29T04:03:46.543Z,19.7506
2023-03-29T04:04:48.188Z,19.7580
2023-03-29T04:05:49.812Z,19.7376
2023-03-29T04:06:51.497Z,19.7274
2023-03-29T04:07:53.121Z,19.7105
2023-03-29T04:08:54.792Z,19.7146
2023-03-29T04:09:56.462Z,19.7007
2023-03-29T04:10:58.107Z,19.6927
2023-03-29T04:11:59.745Z,19.6925
2023-03-29T04:13:01.462Z,19.7023
2023-03-29T04:14:03.056Z,19.7153
2023-03-29T04:15:04.748Z,19.7255
2023-03-29T04:16:06.392Z,19.7224
2023-03-29T04:17:08.052Z,19.7202
2023-03-29T04:18:09.757Z,19.7329
2023-03-29T04:19:11.349Z,19.7350
2023-03-29T04:20:13.015Z,19.7393
2023-03-29T04:21:14.648Z,19.7362
2023-03-29T04:22:16.284Z,19.7323
2023-03-29T04:23:17.975Z,19.7489
2023-03-29T04:24:19.604Z,19.7296
2023-03-29T04:25:21.294Z,19.7239
2023-03-29T04:26:22.915Z,19.7081
2023-03-29T04:27:24.565Z,19.7072
2023-03-29T04:28:26.253Z,19.7093
2023-03-29T04:29:27.853Z,19.7237
2023-03-29T04:30:29.546Z,19.7163
2023-03-29T04:31:31.272Z,19.7255
2023-03-29T04:32:32.855Z,19.7278
2023-03-29T04:33:34.472Z,19.7311
2023-03-29T04:34:36.140Z,19.7239
2023-03-29T04:35:37.851Z,19.7095
2023-03-29T04:36:39.453Z,19.7122
2023-03-29T04:37:41.078Z,19.7062
2023-03-29T04:38:46.097Z,19.7181
2023-03-29T04:39:44.380Z,19.7148
2023-03-29T04:40:46.072Z,19.6912
2023-03-29T04:41:47.687Z,19.6972
2023-03-29T04:42:49.365Z,19.7126
2023-03-29T04:43:51.000Z,19.7111
2023-03-29T04:44:52.698Z,19.6844
2023-03-29T04:45:54.379Z,19.5448
2023-03-29T04:46:55.992Z,18.9961
2023-03-29T04:47:57.663Z,18.6971
2023-03-29T04:48:59.317Z,18.5594
2023-03-29T04:50:00.912Z,18.2961
2023-03-29T04:51:02.777Z,18.3331
2023-03-29T04:52:04.226Z,18.5461
2023-03-29T04:53:05.896Z,18.7817
2023-03-29T04:54:07.530Z,18.9678
2023-03-29T04:55:09.232Z,19.1159
2023-03-29T04:56:10.858Z,19.2252
2023-03-29T04:57:12.559Z,19.2985
2023-03-29T04:58:14.121Z,19.3525
2023-03-29T04:59:15.795Z,19.3989
2023-03-29T05:00:17.463Z,19.4453
2023-03-29T05:01:19.171Z,19.4940
2023-03-29T05:02:20.736Z,19.5168
2023-03-29T05:03:22.418Z,19.4977
2023-03-29T05:04:24.065Z,19.5123
2023-03-29T05:05:25.732Z,19.5037
2023-03-29T05:06:27.376Z,19.5493
2023-03-29T05:07:29.085Z,19.5704
2023-03-29T05:08:30.664Z,19.5819
2023-03-29T05:09:35.037Z,19.6144
2023-03-29T05:10:33.977Z,19.6399
2023-03-29T05:11:35.678Z,19.6300
2023-03-29T05:12:37.285Z,19.6294
2023-03-29T05:13:38.937Z,19.6625
2023-03-29T05:14:40.589Z,19.6296
2023-03-29T05:15:42.267Z,19.6442
2023-03-29T05:16:43.999Z,19.6491
2023-03-29T05:17:45.576Z,19.6358
2023-03-29T05:18:47.214Z,19.6618
2023-03-29T05:19:48.883Z,19.6618
2023-03-29T05:20:50.535Z,19.6614
2023-03-29T05:21:52.219Z,19.6530
2023-03-29T05:22:53.858Z,19.6413
2023-03-29T05:23:55.503Z,19.6456
2023-03-29T05:24:57.135Z,19.6458
2023-03-29T05:25:58.808Z,19.6627
2023-03-29T05:27:00.468Z,19.6655
2023-03-29T05:28:02.112Z,19.6773
2023-03-29T05:29:03.749Z,19.6567
2023-03-29T05:30:05.422Z,19.6506
2023-03-29T05:31:07.068Z,19.6801
2023-03-29T05:32:08.857Z,19.6801
2023-03-29T05:33:10.405Z,19.6655
2023-03-29T05:34:12.032Z,19.6727
2023-03-29T05:35:13.661Z,19.6855
2023-03-29T05:36:15.408Z,19.6692
2023-03-29T05:37:17.024Z,19.6725
2023-03-29T05:38:18.648Z,19.6740
2023-03-29T05:39:20.283Z,19.6886
2023-03-29T05:40:21.966Z,19.6853
2023-03-29T05:41:23.622Z,19.6684
2023-03-29T05:42:25.283Z,19.6522
2023-03-29T05:43:26.898Z,19.6791
2023-03-29T05:44:28.581Z,19.7015
2023-03-29T05:45:30.276Z,19.6898
2023-03-29T05:46:31.896Z,19.6647
2023-03-29T05:47:33.637Z,19.6824
2023-03-29T05:48:35.303Z,19.6904
2023-03-29T05:49:36.852Z,19.6925
2023-03-29T05:50:38.476Z,19.6908
2023-03-29T05:51:40.145Z,19.6883
2023-03-29T05:52:41.810Z,19.6892
2023-03-29T05:53:43.466Z,19.6668
2023-03-29T05:54:45.135Z,19.6727
2023-03-29T05:55:46.782Z,19.6785
2023-03-29T05:56:48.456Z,19.6697
2023-03-29T05:57:50.106Z,19.6738
2023-03-29T05:58:53.657Z,19.6810
2023-03-29T05:59:53.411Z,19.6894
2023-03-29T06:00:55.010Z,19.6701
2023-03-29T06:01:56.734Z,19.6532
2023-03-29T06:03:03.780Z,19.6485
2023-03-29T06:04:00.102Z,19.6559
2023-03-29T06:05:01.657Z,19.6719
2023-03-29T06:06:03.310Z,19.6655
2023-03-29T06:07:04.934Z,19.6647
2023-03-29T06:08:06.631Z,19.6688
2023-03-29T06:09:08.250Z,19.6846
2023-03-29T06:10:09.918Z,19.6994
2023-03-29T06:11:11.543Z,19.5889
2023-03-29T06:12:13.216Z,19.1802
2023-03-29T06:13:14.878Z,18.8922
2023-03-29T06:14:16.516Z,18.8024
2023-03-29T06:15:18.156Z,18.6494
2023-03-29T06:16:19.839Z,18.5455
2023-03-29T06:17:21.457Z,18.4491
2023-03-29T06:18:23.180Z,18.5095
2023-03-29T06:19:24.764Z,18.6145
2023-03-29T06:20:26.447Z,18.8115
2023-03-29T06:21:28.063Z,18.9840
2023-03-29T06:22:29.754Z,19.0912
2023-03-29T06:23:31.411Z,19.2114
2023-03-29T06:24:33.044Z,19.3172
2023-03-29T06:25:34.699Z,19.3585
2023-03-29T06:26:36.349Z,19.3607
2023-03-29T06:27:38.008Z,19.4211
2023-03-29T06:28:39.702Z,19.4433
2023-03-29T06:29:41.298Z,19.4468
2023-03-29T06:30:42.962Z,19.4870
2023-03-29T06:31:44.668Z,19.4949
2023-03-29T06:32:46.332Z,19.5022
2023-03-29T06:33:47.931Z,19.5158
2023-03-29T06:34:49.600Z,19.5135
2023-03-29T06:35:51.305Z,19.5310
2023-03-29T06:36:52.888Z,19.5433
2023-03-29T06:37:54.562Z,19.5259
2023-03-29T06:38:56.240Z,19.5242
2023-03-29T06:39:57.841Z,19.5228
2023-03-29T06:40:59.610Z,19.5127
2023-03-29T06:42:10.057Z,19.4946
2023-03-29T06:43:02.804Z,19.5139
2023-03-29T06:44:04.450Z,19.5244
2023-03-29T06:45:06.138Z,19.5345
2023-03-29T06:46:07.790Z,19.5314
2023-03-29T06:47:09.528Z,19.5152
2023-03-29T06:48:11.171Z,19.5156
2023-03-29T06:49:12.869Z,19.5020
2023-03-29T06:50:14.445Z,19.5191
2023-03-29T06:51:16.118Z,19.5170
2023-03-29T06:52:17.744Z,19.5310
2023-03-29T06:53:19.415Z,19.5253
2023-03-29T06:54:21.142Z,19.5113
2023-03-29T06:55:22.721Z,19.4692
2023-03-29T06:56:24.370Z,19.5064
2023-03-29T06:57:26.177Z,19.5187
2023-03-29T06:58:27.662Z,19.5074
2023-03-29T06:59:29.368Z,19.4963
2023-03-29T07:00:30.988Z,19.4879
2023-03-29T07:01:32.651Z,19.4671
2023-03-29T07:02:34.285Z,19.4560
2023-03-29T07:03:35.959Z,19.4564
2023-03-29T07:04:37.670Z,19.4529
2023-03-29T07:05:39.311Z,19.4548
2023-03-29T07:06:40.889Z,19.4451
2023-03-29T07:07:42.559Z,19.4589
2023-03-29T07:08:44.202Z,19.4384
2023-03-29T07:09:45.880Z,19.4297
2023-03-29T07:10:47.602Z,19.4279
2023-03-29T07:11:49.168Z,19.4316
2023-03-29T07:12:50.796Z,19.4394
2023-03-29T07:13:52.490Z,19.4488
2023-03-29T07:14:54.147Z,19.4431
2023-03-29T07:15:55.838Z,19.4371
2023-03-29T07:16:57.445Z,19.4369
2023-03-29T07:17:59.181Z,19.4377
2023-03-29T07:19:00.738Z,19.4384
2023-03-29T07:20:02.499Z,19.4380
2023-03-29T07:21:04.154Z,19.4230
2023-03-29T07:22:05.708Z,19.4388
2023-03-29T07:23:07.370Z,19.4725
2023-03-29T07:24:09.007Z,19.4581
2023-03-29T07:25:10.693Z,19.4645
2023-03-29T07:26:12.323Z,19.4605
2023-03-29T07:27:13.977Z,19.4977
2023-03-29T07:28:15.670Z,19.5098
2023-03-29T07:29:17.288Z,19.4959
2023-03-29T07:30:18.942Z,19.4684
2023-03-29T07:31:20.558Z,19.4599
2023-03-29T07:32:22.497Z,19.4579
2023-03-29T07:33:23.998Z,19.4451
2023-03-29T07:34:25.540Z,19.4542
2023-03-29T07:35:27.189Z,19.4542
2023-03-29T07:36:28.870Z,19.4482
2023-03-29T07:37:30.493Z,19.4460
2023-03-29T07:38:32.179Z,19.4451
2023-03-29T07:39:33.797Z,19.4412
2023-03-29T07:40:35.476Z,19.4297
2023-03-29T07:41:37.099Z,19.4472
2023-03-29T07:42:38.792Z,19.4466
2023-03-29T07:43:40.422Z,19.4314
2023-03-29T07:44:42.097Z,19.4269
2023-03-29T07:45:43.743Z,19.4106
2023-03-29T07:46:45.412Z,19.4211
2023-03-29T07:47:47.032Z,19.4110
2023-03-29T07:48:48.696Z,19.4113
2023-03-29T07:49:50.330Z,19.4203
2023-03-29T07:50:52.048Z,19.4244
2023-03-29T07:51:53.635Z,19.4295
2023-03-29T07:52:55.286Z,19.4242
2023-03-29T07:53:56.958Z,19.4082
2023-03-29T07:54:58.589Z,19.4156
2023-03-29T07:56:00.270Z,19.4373
2023-03-29T07:57:01.978Z,19.4285
2023-03-29T07:58:03.548Z,19.4328
2023-03-29T07:59:05.221Z,19.4345
2023-03-29T08:00:06.856Z,19.4314
2023-03-29T08:01:08.639Z,19.4363
2023-03-29T08:02:10.161Z,19.4193
2023-03-29T08:03:11.895Z,19.4195
2023-03-29T08:04:13.534Z,19.4158
2023-03-29T08:05:17.476Z,19.4228
2023-03-29T08:06:16.838Z,19.4418
2023-03-29T08:07:18.967Z,19.4388
2023-03-29T08:08:20.078Z,19.4419
2023-03-29T08:09:21.766Z,19.4293
2023-03-29T08:10:23.384Z,19.4277
2023-03-29T08:11:25.074Z,19.4178
2023-03-29T08:12:26.700Z,19.4287
2023-03-29T08:13:28.362Z,19.4250
2023-03-29T08:14:30.009Z,19.4193
2023-03-29T08:15:31.667Z,19.4254
2023-03-29T08:16:33.406Z,19.4262
2023-03-29T08:17:35.082Z,19.4125
2023-03-29T08:18:36.737Z,19.4152
2023-03-29T08:19:38.290Z,19.4090
2023-03-29T08:20:39.919Z,19.4055
2023-03-29T08:21:41.619Z,19.4071
2023-03-29T08:22:43.228Z,19.4172
2023-03-29T08:23:44.918Z,19.4092
2023-03-29T08:24:46.547Z,19.4113
2023-03-29T08:25:48.247Z,19.4076
2023-03-29T08:26:49.883Z,19.4098
2023-03-29T08:27:51.520Z,19.4186
2023-03-29T08:28:53.157Z,19.4115
2023-03-29T08:29:54.836Z,19.4108
2023-03-29T08:30:56.485Z,19.4080
2023-03-29T08:31:58.159Z,19.4133
2023-03-29T08:32:59.787Z,19.4115
2023-03-29T08:34:01.437Z,19.4295
2023-03-29T08:35:03.078Z,19.4287
2023-03-29T08:36:04.780Z,19.4304
2023-03-29T08:37:06.414Z,19.4234
2023-03-29T08:38:08.067Z,19.4195
2023-03-29T08:39:09.686Z,19.4131
2023-03-29T08:40:11.363Z,19.4102
2023-03-29T08:41:13.000Z,19.4642
2023-03-29T08:42:14.689Z,19.4757
2023-03-29T08:43:16.287Z,19.4928
2023-03-29T08:44:17.974Z,19.2983
2023-03-29T08:45:19.646Z,19.0929
2023-03-29T08:46:21.346Z,19.2288
2023-03-29T08:47:22.933Z,19.2981
2023-03-29T08:48:24.573Z,19.3348
2023-03-29T08:49:26.251Z,19.3502
2023-03-29T08:50:27.888Z,19.3739
2023-03-29T08:51:29.532Z,19.3841
2023-03-29T08:52:31.290Z,19.4129
2023-03-29T08:53:32.858Z,19.4049
2023-03-29T08:54:34.517Z,19.4139
2023-03-29T08:55:36.145Z,19.4053
2023-03-29T08:56:37.835Z,19.4164
2023-03-29T08:57:39.559Z,19.4316
2023-03-29T08:58:41.134Z,19.4437
2023-03-29T08:59:42.743Z,19.4534
2023-03-29T09:00:44.431Z,19.4456
2023-03-29T09:01:48.447Z,19.4375
2023-03-29T09:02:47.829Z,19.4260
2023-03-29T09:03:49.473Z,19.4131
2023-03-29T09:04:51.013Z,19.4252
2023-03-29T09:05:52.649Z,19.4170
2023-03-29T09:06:54.339Z,19.4433
2023-03-29T09:07:55.976Z,19.4521
2023-03-29T09:08:57.633Z,19.4942
2023-03-29T09:09:59.263Z,19.5125
2023-03-29T09:11:01.091Z,19.4897
2023-03-29T09:12:02.570Z,19.4909
2023-03-29T09:13:04.299Z,19.4671
2023-03-29T09:14:05.879Z,19.4612
2023-03-29T09:15:07.549Z,19.4509
2023-03-29T09:16:09.173Z,19.4797
2023-03-29T09:17:10.868Z,19.5039
2023-03-29T09:18:12.556Z,19.4858
2023-03-29T09:19:14.172Z,19.4741
2023-03-29T09:20:15.802Z,19.4686
2023-03-29T09:21:17.462Z,19.4505
2023-03-29T09:22:20.078Z,19.4544
2023-03-29T09:23:20.793Z,19.4417
2023-03-29T09:24:22.423Z,19.4382
2023-03-29T09:25:24.097Z,19.4359
2023-03-29T09:26:25.740Z,19.4396
2023-03-29T09:27:27.393Z,19.4433
2023-03-29T09:28:29.049Z,19.4529
2023-03-29T09:29:30.703Z,19.4540
2023-03-29T09:30:32.360Z,19.4562
2023-03-29T09:31:34.042Z,19.4429
2023-03-29T09:32:35.706Z,19.4474
2023-03-29T09:33:37.406Z,19.4515
2023-03-29T09:34:38.970Z,19.4505
2023-03-29T09:35:40.640Z,19.4373
2023-03-29T09:36:42.269Z,19.4295
2023-03-29T09:37:43.934Z,19.4213
2023-03-29T09:38:45.604Z,19.4328
2023-03-29T09:39:47.267Z,19.4417
2023-03-29T09:40:48.900Z,19.4373
2023-03-29T09:41:50.545Z,19.4304
2023-03-29T09:42:52.331Z,19.4351
2023-03-29T09:43:53.896Z,19.4322
2023-03-29T09:44:55.489Z,19.4291
2023-03-29T09:45:57.238Z,19.4269
2023-03-29T09:46:58.857Z,19.4158
2023-03-29T09:48:00.572Z,19.4137
2023-03-29T09:49:02.169Z,19.4156
2023-03-29T09:50:03.799Z,19.4281
2023-03-29T09:51:05.431Z,19.4172
2023-03-29T09:52:07.075Z,19.4277
2023-03-29T09:53:08.726Z,19.4252
2023-03-29T09:54:10.436Z,19.4215
2023-03-29T09:55:12.030Z,19.4176
2023-03-29T09:56:13.699Z,19.4102
2023-03-29T09:57:15.415Z,19.4053
2023-03-29T09:58:17.026Z,19.4193
2023-03-29T09:59:18.691Z,19.4119
2023-03-29T10:00:20.313Z,19.4137
2023-03-29T10:01:21.949Z,19.4049
2023-03-29T10:02:23.628Z,19.4209
2023-03-29T10:03:25.241Z,19.4519
2023-03-29T10:04:26.992Z,19.4601
2023-03-29T10:05:28.548Z,19.4883
2023-03-29T10:06:30.215Z,19.4823
2023-03-29T10:07:31.852Z,19.5152
2023-03-29T10:08:33.578Z,19.5111
2023-03-29T10:09:35.200Z,19.4977
2023-03-29T10:10:36.889Z,19.5152
2023-03-29T10:11:38.498Z,19.5170
2023-03-29T10:12:40.138Z,19.5246
2023-03-29T10:13:41.777Z,19.5780
2023-03-29T10:14:43.468Z,19.5850
2023-03-29T10:15:45.103Z,19.5815
2023-03-29T10:16:46.874Z,19.5856
2023-03-29T10:17:48.467Z,19.5709
2023-03-29T10:18:50.061Z,19.5446
2023-03-29T10:19:51.741Z,19.5520
2023-03-29T10:20:53.384Z,19.5365
2023-03-29T10:21:55.023Z,19.5289
2023-03-29T10:22:56.674Z,19.5248
2023-03-29T10:23:58.304Z,19.5813
2023-03-29T10:25:00.031Z,19.5665
2023-03-29T10:26:01.625Z,19.5511
2023-03-29T10:27:03.290Z,19.5398
2023-03-29T10:28:04.935Z,19.5711
2023-03-29T10:29:06.594Z,19.5900
2023-03-29T10:30:08.253Z,19.5971
2023-03-29T10:31:09.928Z,19.5994
2023-03-29T10:32:11.574Z,19.5881
2023-03-29T10:33:13.219Z,19.5957
2023-03-29T10:34:14.830Z,19.5969
2023-03-29T10:35:16.536Z,19.6204
2023-03-29T10:36:18.156Z,19.6177
2023-03-29T10:37:19.818Z,19.6099
2023-03-29T10:38:21.486Z,19.6091
2023-03-29T10:39:23.112Z,19.6140
2023-03-29T10:40:24.787Z,19.6317
2023-03-29T10:41:26.414Z,19.6495
2023-03-29T10:42:28.047Z,19.6575
2023-03-29T10:43:29.799Z,19.6530
2023-03-29T10:44:33.174Z,19.6520
2023-03-29T10:45:33.073Z,19.6536
2023-03-29T10:46:34.789Z,19.6551
2023-03-29T10:47:36.361Z,19.2034
2023-03-29T10:48:38.023Z,18.5494
2023-03-29T10:49:39.656Z,18.8743
2023-03-29T10:50:41.367Z,19.1268
2023-03-29T10:51:43.018Z,19.3168
2023-03-29T10:52:44.650Z,19.4529
2023-03-29T10:53:46.325Z,19.5283
2023-03-29T10:54:47.956Z,19.5879
2023-03-29T10:55:49.657Z,19.6249
2023-03-29T10:56:52.558Z,19.6616
2023-03-29T10:57:52.925Z,19.6867
2023-03-29T10:58:54.574Z,19.7085
2023-03-29T10:59:56.218Z,19.7224
2023-03-29T11:00:57.875Z,19.7356
2023-03-29T11:01:59.561Z,19.7535
2023-03-29T11:03:01.217Z,19.7401
2023-03-29T11:04:02.909Z,19.7241
2023-03-29T11:05:04.441Z,19.7584
2023-03-29T11:06:06.141Z,19.7900
2023-03-29T11:07:07.751Z,19.7968
2023-03-29T11:08:09.439Z,19.8147
2023-03-29T11:09:11.054Z,19.8311
2023-03-29T11:10:12.738Z,19.8410
2023-03-29T11:11:14.406Z,19.8354
2023-03-29T11:12:16.659Z,19.8500
2023-03-29T11:13:17.694Z,19.8543
2023-03-29T11:14:19.331Z,19.8697
2023-03-29T11:15:20.950Z,19.8566
2023-03-29T11:16:22.906Z,19.8935
2023-03-29T11:17:24.275Z,19.9040
2023-03-29T11:18:25.929Z,19.9003
2023-03-29T11:19:27.574Z,19.8962
2023-03-29T11:20:29.241Z,19.9024
2023-03-29T11:21:30.897Z,19.9020
2023-03-29T11:22:32.560Z,19.9026
2023-03-29T11:23:34.196Z,19.9094
2023-03-29T11:24:35.875Z,19.9061
2023-03-29T11:25:37.478Z,19.9129
2023-03-29T11:26:39.203Z,19.9252
2023-03-29T11:27:40.787Z,19.9328
2023-03-29T11:28:42.468Z,19.9326
2023-03-29T11:29:44.126Z,19.9359
2023-03-29T11:30:45.798Z,19.9268
2023-03-29T11:31:47.508Z,19.9336
2023-03-29T11:32:49.086Z,19.9387
2023-03-29T11:33:50.713Z,19.9435
2023-03-29T11:34:52.384Z,19.9461
2023-03-29T11:35:54.064Z,19.9474
2023-03-29T11:36:55.727Z,19.9531
2023-03-29T11:37:57.313Z,19.9554
2023-03-29T11:38:58.968Z,19.9472
2023-03-29T11:40:00.611Z,19.9554
2023-03-29T11:41:02.596Z,19.9578
2023-03-29T11:42:03.935Z,19.9661
2023-03-29T11:43:05.576Z,19.9658
2023-03-29T11:44:07.236Z,19.9710
2023-03-29T11:45:08.874Z,19.9677
2023-03-29T11:46:10.523Z,19.9712
2023-03-29T11:47:12.233Z,19.9778
2023-03-29T11:48:13.821Z,19.9726
2023-03-29T11:49:15.489Z,19.9798
2023-03-29T11:50:17.142Z,19.9893
2023-03-29T11:51:18.791Z,19.9687
2023-03-29T11:52:20.468Z,20.0059
2023-03-29T11:53:22.080Z,20.0176
2023-03-29T11:54:23.758Z,20.0269
2023-03-29T11:55:25.398Z,20.0447
2023-03-29T11:56:27.042Z,20.0644
2023-03-29T11:57:28.861Z,20.0197
2023-03-29T11:58:30.344Z,19.9763
2023-03-29T11:59:31.992Z,20.0240
2023-03-29T12:00:33.659Z,20.0979
2023-03-29T12:01:35.299Z,20.1448
2023-03-29T12:02:37.105Z,20.1945
2023-03-29T12:03:38.797Z,20.1951
2023-03-29T12:04:40.297Z,20.0297
2023-03-29T12:05:41.894Z,19.7923
2023-03-29T12:06:43.578Z,19.6306
2023-03-29T12:07:45.237Z,19.5213
2023-03-29T12:08:46.900Z,19.4312
2023-03-29T12:09:48.516Z,19.3533
2023-03-29T12:10:50.192Z,19.3246
2023-03-29T12:11:51.827Z,19.2979
2023-03-29T12:12:53.548Z,19.2295
2023-03-29T12:13:55.148Z,19.1878
2023-03-29T12:14:57.125Z,19.1769
2023-03-29T12:15:58.454Z,19.1524
2023-03-29T12:17:00.158Z,19.1869
2023-03-29T12:18:01.801Z,19.2256
2023-03-29T12:19:03.411Z,19.2533
2023-03-29T12:20:05.077Z,19.2089
2023-03-29T12:21:06.877Z,19.1662
2023-03-29T12:22:08.363Z,19.0996
2023-03-29T12:23:10.071Z,19.0249
2023-03-29T12:24:11.688Z,18.9770
2023-03-29T12:25:14.312Z,18.9838